Time;durP1;ratioP1;P1;durP2;ratioP2;P2;SDS_P1;SDS_P2;PMS_P1;PMS_P2;Temp;Humidity;BMP_temperature;BMP_pressure;BME280_temperature;BME280_humidity;BME280_pressure;Samples;Min_cycle;Max_cycle;Signal;HPM_P1;HPM_P2
2023/09/04 00:00:19;;;;;;;5.77;3.73;;;14.80;99.90;;;14.82;74.38;102252.41;5092965;28;20193;-72
2023/09/04 00:02:53;;;;;;;4.03;3.60;;;14.90;99.90;;;14.66;75.88;102251.22;5096254;28;20398;-72
2023/09/04 00:05:28;;;;;;;4.80;3.57;;;14.80;99.90;;;14.59;76.18;102247.41;5096627;28;20282;-72
2023/09/04 00:07:59;;;;;;;4.20;3.40;;;14.70;99.90;;;14.81;74.59;102250.72;5096293;28;20603;-72
2023/09/04 00:10:31;;;;;;;4.67;3.80;;;15.00;99.90;;;15.01;73.97;102241.50;5096583;28;20227;-71
2023/09/04 00:13:03;;;;;;;4.07;3.60;;;15.30;99.90;;;14.82;73.68;102253.25;5096545;28;20189;-71
2023/09/04 00:15:35;;;;;;;3.83;3.40;;;15.00;99.90;;;14.61;74.97;102250.81;5096104;28;20316;-71
2023/09/04 00:18:09;;;;;;;4.27;3.50;;;14.80;99.90;;;14.73;74.79;102255.00;5097271;28;20292;-71
2023/09/04 00:20:41;;;;;;;4.80;3.63;;;14.80;99.90;;;14.65;74.83;102240.59;5096343;28;20196;-71
2023/09/04 00:23:13;;;;;;;4.20;3.73;;;14.80;99.90;;;14.57;75.14;102249.44;5096122;28;20256;-71
2023/09/04 00:25:45;;;;;;;4.27;3.30;;;14.70;99.90;;;14.65;74.33;102244.16;5096319;28;20291;-71
2023/09/04 00:28:18;;;;;;;6.03;3.60;;;14.80;99.90;;;14.64;74.18;102247.81;5095925;28;20557;-71
2023/09/04 00:30:50;;;;;;;5.57;3.70;;;14.80;99.90;;;14.63;74.10;102245.28;5095846;28;20601;-71
2023/09/04 00:33:23;;;;;;;3.70;3.40;;;14.70;99.90;;;14.69;73.61;102240.13;5096018;28;20641;-72
2023/09/04 00:35:55;;;;;;;3.60;3.30;;;15.00;99.90;;;14.46;74.93;102236.13;5096115;28;20338;-72
2023/09/04 00:38:27;;;;;;;4.67;3.50;;;14.60;99.90;;;14.40;74.75;102234.03;5096037;28;20189;-72
2023/09/04 00:40:58;;;;;;;6.13;3.90;;;14.50;99.90;;;14.29;75.57;102236.03;5096274;28;20210;-72
2023/09/04 00:43:38;;;;;;;3.83;3.53;;;14.40;99.90;;;14.28;75.37;102227.09;5095726;28;20209;-71
2023/09/04 00:46:11;;;;;;;4.80;3.73;;;14.40;99.90;;;14.25;75.36;102231.97;5095850;28;20283;-71
2023/09/04 00:48:46;;;;;;;4.67;3.67;;;14.40;99.90;;;14.15;76.39;102234.66;5095857;28;20189;-72
2023/09/04 00:51:18;;;;;;;4.83;4.00;;;14.20;99.90;;;13.94;77.32;102240.25;5095803;28;20188;-72
2023/09/04 00:53:51;;;;;;;5.50;4.00;;;14.10;99.90;;;13.95;77.11;102233.91;5095521;28;20303;-72
2023/09/04 00:56:24;;;;;;;4.00;3.60;;;14.10;99.90;;;13.99;77.10;102243.38;5095707;28;20220;-72
2023/09/04 00:58:57;;;;;;;4.43;3.50;;;14.10;99.90;;;13.96;76.58;102246.38;5095644;28;20189;-72
2023/09/04 01:01:30;;;;;;;3.77;3.47;;;14.10;99.90;;;14.05;76.52;102245.47;5095652;28;20287;-72
2023/09/04 01:04:03;;;;;;;4.33;3.77;;;14.20;99.90;;;14.05;76.60;102248.19;5095784;28;20320;-72
2023/09/04 01:06:34;;;;;;;4.07;3.67;;;14.10;99.90;;;14.03;76.35;102238.56;5095553;28;20276;-71
2023/09/04 01:09:08;;;;;;;7.77;3.87;;;14.20;99.90;;;14.07;76.08;102235.44;5095444;28;20193;-71
2023/09/04 01:11:49;;;;;;;4.40;4.00;;;14.20;99.90;;;14.00;76.69;102238.84;5094973;28;20189;-71
2023/09/04 01:14:24;;;;;;;5.57;3.80;;;14.10;99.90;;;14.10;75.97;102231.59;5094976;28;20736;-71
2023/09/04 01:16:57;;;;;;;4.30;3.90;;;14.40;99.90;;;14.15;75.81;102230.13;5095317;28;20220;-71
2023/09/04 01:19:34;;;;;;;5.83;3.80;;;14.40;99.90;;;14.08;75.39;102228.19;5094955;28;20189;-71
2023/09/04 01:22:10;;;;;;;4.27;3.87;;;14.40;99.90;;;13.89;76.92;102229.09;5095110;28;20196;-71
2023/09/04 01:24:42;;;;;;;8.63;4.20;;;14.20;99.90;;;13.80;77.80;102227.25;5095069;28;20224;-71
2023/09/04 01:27:26;;;;;;;4.30;4.00;;;13.90;99.90;;;13.83;77.60;102228.84;5095091;28;20262;-71
2023/09/04 01:30:11;;;;;;;4.53;4.10;;;13.90;99.90;;;13.76;77.02;102223.19;5095037;28;20185;-71
2023/09/04 01:32:50;;;;;;;4.87;4.33;;;13.90;99.90;;;13.73;78.05;102225.31;5094940;28;20235;-71
2023/09/04 01:35:25;;;;;;;5.30;4.20;;;13.90;99.90;;;13.67;78.24;102224.88;5095076;28;20224;-71
2023/09/04 01:37:59;;;;;;;4.53;4.13;;;13.80;99.90;;;13.61;77.98;102222.78;5095132;28;20199;-71
2023/09/04 01:40:31;;;;;;;5.00;4.50;;;13.80;99.90;;;13.50;78.87;102220.25;5094514;28;20562;-72
2023/09/04 01:43:03;;;;;;;6.10;4.67;;;13.60;99.90;;;13.59;78.71;102216.72;5094693;28;20219;-72
2023/09/04 01:45:35;;;;;;;4.60;4.20;;;13.80;99.90;;;13.64;77.20;102221.63;5094650;28;20319;-72
2023/09/04 01:48:09;;;;;;;5.13;4.63;;;13.90;99.90;;;13.64;77.72;102227.03;5094717;28;20285;-71
2023/09/04 01:50:40;;;;;;;4.73;4.30;;;13.80;99.90;;;13.60;78.26;102221.06;5094304;28;20203;-71
2023/09/04 01:53:14;;;;;;;5.33;4.63;;;13.70;99.90;;;13.50;77.92;102219.38;5094496;28;20669;-71
2023/09/04 01:55:45;;;;;;;5.37;4.40;;;13.70;99.90;;;13.39;78.63;102216.88;5094157;28;20659;-71
2023/09/04 01:58:17;;;;;;;5.07;4.47;;;13.60;99.90;;;13.43;79.26;102216.41;5094495;28;20193;-71
2023/09/04 02:00:50;;;;;;;4.90;4.40;;;13.50;99.90;;;13.48;78.55;102218.69;5094466;28;20242;-71
2023/09/04 02:03:22;;;;;;;6.27;4.90;;;13.60;99.90;;;13.51;77.77;102215.72;5094224;28;20217;-71
2023/09/04 02:05:54;;;;;;;5.30;4.80;;;13.80;99.90;;;13.46;78.57;102213.44;5094384;28;20552;-71
2023/09/04 02:08:27;;;;;;;5.20;4.67;;;13.70;99.90;;;13.56;78.32;102208.06;5094518;28;20279;-71
2023/09/04 02:11:00;;;;;;;5.00;4.40;;;13.80;99.90;;;13.57;77.49;102204.38;5094274;28;20213;-71
2023/09/04 02:13:31;;;;;;;5.47;4.90;;;13.80;99.90;;;13.60;76.79;102210.31;5094964;28;20605;-71
2023/09/04 02:16:03;;;;;;;5.37;4.87;;;13.90;99.90;;;13.55;77.41;102207.22;5094145;28;20277;-71
2023/09/04 02:18:47;;;;;;;5.07;4.57;;;13.90;99.90;;;13.49;77.89;102210.47;5094127;28;20189;-71
2023/09/04 02:21:20;;;;;;;7.90;5.00;;;13.80;99.90;;;13.37;78.93;102211.63;5094058;28;20625;-71
2023/09/04 02:23:53;;;;;;;6.80;5.30;;;13.60;99.90;;;13.28;78.50;102207.09;5093201;28;20239;-71
2023/09/04 02:26:25;;;;;;;6.07;5.50;;;13.50;99.90;;;13.19;79.11;102210.63;5094038;28;20215;-71
2023/09/04 02:28:57;;;;;;;5.77;5.20;;;13.40;99.90;;;13.21;78.92;102205.97;5093967;28;20288;-71
2023/09/04 02:31:28;;;;;;;6.10;5.50;;;13.50;99.90;;;13.17;78.73;102202.72;5093946;28;20216;-71
2023/09/04 02:34:00;;;;;;;6.93;5.57;;;13.40;99.90;;;13.11;79.67;102197.06;5093786;28;20589;-71
2023/09/04 02:36:32;;;;;;;6.50;5.60;;;13.30;99.90;;;13.04;79.49;102212.88;5093520;28;20188;-71
2023/09/04 02:39:05;;;;;;;6.03;5.43;;;13.30;99.90;;;12.98;80.71;102207.22;5093753;28;20295;-71
2023/09/04 02:41:37;;;;;;;5.67;5.17;;;13.20;99.90;;;13.06;79.62;102205.50;5093803;28;20271;-71
2023/09/04 02:44:10;;;;;;;5.90;5.30;;;13.30;99.90;;;13.08;78.65;102202.69;5094085;28;20302;-72
2023/09/04 02:46:41;;;;;;;6.17;5.40;;;13.40;99.90;;;13.09;78.81;102202.56;5093613;28;20658;-72
2023/09/04 02:49:13;;;;;;;6.17;5.00;;;13.30;99.90;;;13.05;78.62;102200.25;5093618;28;20299;-72
2023/09/04 02:51:45;;;;;;;6.03;5.43;;;13.30;99.90;;;13.03;78.58;102196.88;5093320;28;20631;-72
2023/09/04 02:54:18;;;;;;;5.80;5.30;;;13.30;99.90;;;13.02;79.04;102195.16;5093236;28;20251;-72
2023/09/04 02:56:50;;;;;;;5.63;5.13;;;13.20;99.90;;;13.03;77.71;102192.34;5093614;28;20235;-72
2023/09/04 02:59:22;;;;;;;6.07;5.47;;;13.30;99.90;;;12.96;78.71;102193.03;5093706;28;20203;-72
2023/09/04 03:01:54;;;;;;;5.97;4.93;;;13.20;99.90;;;12.87;79.45;102193.91;5093498;28;20185;-72
2023/09/04 03:04:26;;;;;;;6.10;5.50;;;13.10;99.90;;;12.79;79.99;102191.03;5093490;28;20307;-72
2023/09/04 03:06:58;;;;;;;7.30;5.63;;;13.00;99.90;;;12.73;80.16;102188.91;5093448;28;20280;-72
2023/09/04 03:09:31;;;;;;;6.03;5.47;;;12.90;99.90;;;12.76;80.63;102196.69;5093453;28;20300;-72
2023/09/04 03:12:04;;;;;;;6.30;5.30;;;13.00;99.90;;;12.80;79.63;102190.91;5093420;28;20285;-72
2023/09/04 03:14:36;;;;;;;6.27;5.77;;;13.00;99.90;;;12.79;79.50;102193.72;5093299;28;20225;-72
2023/09/04 03:17:09;;;;;;;8.10;5.70;;;13.10;99.90;;;12.70;79.47;102195.44;5093365;28;20204;-72
2023/09/04 03:19:40;;;;;;;7.37;5.27;;;12.90;99.90;;;12.70;79.66;102188.19;5093376;28;20619;-72
2023/09/04 03:22:12;;;;;;;5.60;5.10;;;13.00;99.90;;;12.72;79.47;102185.38;5093311;28;20273;-72
2023/09/04 03:24:45;;;;;;;5.60;5.10;;;13.00;99.90;;;12.91;79.43;102193.44;5093021;28;20691;-72
2023/09/04 03:27:18;;;;;;;5.90;5.40;;;13.30;99.90;;;12.95;77.36;102191.34;5093257;28;20189;-72
2023/09/04 03:29:50;;;;;;;5.83;5.20;;;13.30;99.90;;;12.74;78.49;102190.63;5093257;28;20272;-72
2023/09/04 03:32:22;;;;;;;5.93;5.10;;;13.00;99.90;;;12.62;79.83;102196.13;5093309;28;20279;-72
2023/09/04 03:34:53;;;;;;;7.10;5.50;;;12.80;99.90;;;12.58;79.77;102189.31;5093692;28;20253;-72
2023/09/04 03:37:25;;;;;;;6.63;5.50;;;12.80;99.90;;;12.61;80.04;102183.66;5097208;28;20229;-72
2023/09/04 03:40:19;;;;;;;5.40;4.90;;;12.80;99.90;;;12.78;78.75;102183.97;5097177;28;20223;-71
2023/09/04 03:42:51;;;;;;;6.27;5.67;;;13.10;99.90;;;12.66;78.11;102181.41;5097140;28;20253;-72
2023/09/04 03:45:25;;;;;;;9.47;5.53;;;13.00;99.90;;;12.61;78.37;102189.03;5096982;28;20326;-72
2023/09/04 03:47:59;;;;;;;5.70;5.20;;;13.00;99.90;;;12.50;78.71;102194.50;5097074;28;20273;-72
2023/09/04 03:50:32;;;;;;;6.30;5.70;;;12.80;99.90;;;12.45;79.80;102182.50;5096992;28;20186;-72
2023/09/04 03:53:04;;;;;;;5.93;5.33;;;12.60;99.90;;;12.60;78.32;102179.25;5096619;28;20193;-72
2023/09/04 03:55:39;;;;;;;7.43;5.57;;;12.90;99.90;;;12.47;79.36;102185.88;5096437;28;20260;-72
2023/09/04 03:58:10;;;;;;;6.40;5.47;;;12.80;99.90;;;12.61;78.72;102183.66;5096813;28;20276;-72
2023/09/04 04:00:42;;;;;;;6.73;5.67;;;12.90;99.90;;;12.64;77.43;102188.75;5096466;28;20695;-72
2023/09/04 04:03:14;;;;;;;7.43;5.97;;;13.10;99.90;;;12.42;78.63;102194.38;5096651;28;20200;-73
2023/09/04 04:05:48;;;;;;;6.17;5.67;;;12.70;99.90;;;12.48;79.99;102187.59;5096709;28;20188;-72
2023/09/04 04:08:20;;;;;;;6.63;5.40;;;12.70;99.90;;;12.68;78.60;102184.81;5096592;28;20742;-72
2023/09/04 04:10:57;;;;;;;7.00;6.40;;;13.10;99.90;;;12.43;78.91;102190.69;5096722;28;20224;-72
2023/09/04 04:13:29;;;;;;;7.20;5.40;;;12.80;99.90;;;12.56;78.99;102190.44;5096491;28;20220;-72
2023/09/04 04:16:02;;;;;;;7.70;6.13;;;12.90;99.90;;;12.51;77.96;102193.53;5096425;28;20561;-72
2023/09/04 04:18:35;;;;;;;9.00;6.17;;;12.80;99.90;;;12.35;78.63;102189.69;5096365;28;20239;-72
2023/09/04 04:21:07;;;;;;;6.20;5.43;;;12.60;99.90;;;12.35;78.92;102182.47;5096435;28;20189;-72
2023/09/04 04:23:39;;;;;;;8.90;6.47;;;12.60;99.90;;;12.31;79.10;102181.03;5096245;28;20220;-72
2023/09/04 04:26:12;;;;;;;7.07;6.37;;;12.60;99.90;;;12.21;79.82;102190.91;5096018;28;20200;-72
2023/09/04 04:28:44;;;;;;;7.60;6.90;;;12.50;99.90;;;12.18;80.21;102196.53;5095988;28;20627;-72
2023/09/04 04:31:16;;;;;;;7.60;6.80;;;12.50;99.90;;;12.26;79.74;102196.69;5096232;28;20197;-72
2023/09/04 04:33:48;;;;;;;7.00;6.37;;;12.50;99.90;;;12.17;80.21;102208.25;5096101;28;20225;-72
2023/09/04 04:36:20;;;;;;;7.00;6.37;;;12.50;99.90;;;12.18;81.18;102200.09;5096180;28;20272;-72
2023/09/04 04:38:52;;;;;;;7.17;6.47;;;12.40;99.90;;;12.19;81.09;102214.38;5095786;28;20193;-72
2023/09/04 04:41:25;;;;;;;8.37;6.40;;;12.40;99.90;;;12.27;79.81;102209.16;5095734;28;20632;-72
2023/09/04 04:43:57;;;;;;;7.43;6.33;;;12.80;99.90;;;12.23;79.27;102215.78;5095508;28;20319;-72
2023/09/04 04:46:29;;;;;;;7.40;6.63;;;12.50;99.90;;;12.12;79.12;102207.84;5095177;28;20189;-72
2023/09/04 04:49:01;;;;;;;7.73;6.93;;;12.40;99.90;;;12.14;80.11;102205.84;5095583;28;20695;-72
2023/09/04 04:51:33;;;;;;;7.77;6.90;;;12.50;99.90;;;12.09;80.42;102202.69;5095891;28;20279;-72
2023/09/04 04:54:05;;;;;;;10.60;6.43;;;12.40;99.90;;;12.21;80.57;102207.00;5095568;28;20229;-71
2023/09/04 04:56:39;;;;;;;8.40;7.50;;;12.60;99.90;;;12.10;81.90;102199.03;5096221;28;20272;-71
2023/09/04 04:59:09;;;;;;;8.73;7.27;;;12.40;99.90;;;12.13;80.97;102204.13;5095457;28;20279;-71
2023/09/04 05:01:42;;;;;;;9.20;7.30;;;12.40;99.90;;;12.15;81.41;102204.88;5095713;28;20271;-72
2023/09/04 05:04:13;;;;;;;13.20;7.70;;;12.50;99.90;;;12.13;81.06;102204.13;5095492;28;20234;-72
2023/09/04 05:06:46;;;;;;;10.07;7.37;;;12.50;99.90;;;12.10;81.15;102204.41;5095588;28;20181;-72
2023/09/04 05:09:17;;;;;;;11.40;6.80;;;12.50;99.90;;;12.12;82.30;102208.66;5095226;28;20636;-71
2023/09/04 05:11:51;;;;;;;13.30;6.63;;;12.50;99.90;;;12.18;82.11;102212.66;5095476;28;20196;-72
2023/09/04 05:14:23;;;;;;;16.17;7.50;;;12.60;99.90;;;12.16;81.91;102214.59;5095310;28;20274;-72
2023/09/04 05:16:55;;;;;;;12.10;8.00;;;12.50;99.90;;;12.15;81.68;102204.88;5095361;28;20220;-72
2023/09/04 05:19:28;;;;;;;16.53;7.67;;;12.50;99.90;;;12.16;81.84;102210.09;5095299;28;20228;-72
2023/09/04 05:22:00;;;;;;;13.90;7.57;;;12.50;99.90;;;12.15;82.73;102207.56;5094922;28;20594;-72
2023/09/04 05:24:32;;;;;;;17.30;7.87;;;12.50;99.90;;;12.14;82.43;102205.84;5095088;28;20229;-72
2023/09/04 05:27:04;;;;;;;11.90;7.43;;;12.50;99.90;;;12.27;82.85;102203.78;5095177;28;20433;-72
2023/09/04 05:29:36;;;;;;;11.33;7.30;;;12.80;99.90;;;12.35;82.06;102203.97;5095066;28;20280;-72
2023/09/04 05:32:09;;;;;;;11.20;7.10;;;12.80;99.90;;;12.40;82.27;102215.13;5095029;28;20189;-72
2023/09/04 05:34:41;;;;;;;8.80;6.80;;;12.90;99.90;;;12.40;82.27;102214.28;5094946;28;20225;-72
2023/09/04 05:37:15;;;;;;;10.23;7.67;;;12.80;99.90;;;12.39;82.45;102215.28;5094950;28;20268;-72
2023/09/04 05:39:47;;;;;;;7.80;7.03;;;12.90;99.90;;;12.39;82.98;102216.13;5094545;28;20574;-72
2023/09/04 05:42:20;;;;;;;8.63;7.73;;;12.80;99.90;;;12.37;84.02;102218.09;5094551;28;20596;-72
2023/09/04 05:44:52;;;;;;;9.37;7.37;;;12.90;99.90;;;12.37;84.35;102225.28;5094605;28;20324;-72
2023/09/04 05:47:24;;;;;;;7.37;6.60;;;12.80;99.90;;;12.38;84.14;102230.53;5094592;28;20189;-72
2023/09/04 05:49:55;;;;;;;8.53;7.33;;;12.90;99.90;;;12.41;84.95;102224.91;5094807;28;20616;-72
2023/09/04 05:52:27;;;;;;;7.67;6.97;;;12.90;99.90;;;12.46;84.59;102232.56;5094666;28;20185;-72
2023/09/04 05:54:59;;;;;;;9.63;8.33;;;13.00;99.90;;;12.42;86.17;102234.66;5094152;28;20315;-72
2023/09/04 05:57:32;;;;;;;9.53;7.73;;;12.90;99.90;;;12.43;86.56;102232.81;5094521;28;20228;-72
2023/09/04 06:00:06;;;;;;;9.43;7.63;;;12.90;99.90;;;12.46;86.08;102235.25;5094810;28;20228;-72
2023/09/04 06:02:38;;;;;;;8.60;7.33;;;13.00;99.90;;;12.48;86.85;102226.06;5094446;28;20281;-72
2023/09/04 06:05:11;;;;;;;10.07;7.67;;;13.00;99.90;;;12.50;85.81;102229.44;5094312;28;20236;-72
2023/09/04 06:07:45;;;;;;;15.23;9.37;;;13.00;99.90;;;12.53;87.23;102233.72;5094327;28;20185;-73
2023/09/04 06:10:18;;;;;;;9.80;8.27;;;13.00;99.90;;;12.54;86.79;102230.88;5094358;28;20247;-72
2023/09/04 06:12:52;;;;;;;12.37;8.10;;;13.10;99.90;;;12.57;86.41;102230.59;5094319;28;20539;-72
2023/09/04 06:15:24;;;;;;;16.57;9.13;;;13.10;99.90;;;12.61;87.38;102220.41;5094162;28;20247;-72
2023/09/04 06:17:56;;;;;;;11.17;7.97;;;13.10;99.90;;;12.63;88.22;102221.16;5094177;28;20221;-72
2023/09/04 06:20:28;;;;;;;18.40;9.57;;;13.20;99.90;;;12.65;89.02;102220.03;5094156;28;20198;-72
2023/09/04 06:23:01;;;;;;;12.63;9.17;;;13.20;99.90;;;12.67;89.34;102219.91;5093747;28;20279;-73
2023/09/04 06:25:38;;;;;;;15.77;9.67;;;13.20;99.90;;;12.68;90.27;102211.69;5093638;28;20760;-72
2023/09/04 06:28:13;;;;;;;13.23;9.47;;;13.20;99.90;;;12.70;89.27;102215.06;5093759;28;20628;-72
2023/09/04 06:30:45;;;;;;;16.67;9.80;;;13.20;99.90;;;12.73;90.05;102230.09;5093934;28;20193;-73
2023/09/04 06:33:17;;;;;;;16.00;9.43;;;13.30;99.90;;;12.75;90.43;102216.50;5093868;28;20193;-73
2023/09/04 06:35:49;;;;;;;36.10;11.23;;;13.30;99.90;;;12.80;91.61;102214.25;5093633;28;20201;-73
2023/09/04 06:38:21;;;;;;;24.93;10.80;;;13.40;99.90;;;12.85;91.36;102220.03;5093510;28;20561;-73
2023/09/04 06:40:57;;;;;;;12.40;8.70;;;13.50;99.90;;;12.86;90.64;102225.28;5093785;28;20239;-73
2023/09/04 06:43:32;;;;;;;15.97;10.30;;;13.50;99.90;;;12.93;91.91;102218.38;5093395;28;20200;-73
2023/09/04 06:46:04;;;;;;;9.87;8.27;;;13.50;99.90;;;12.97;91.58;102216.25;5093642;28;20208;-73
2023/09/04 06:48:37;;;;;;;14.17;9.27;;;13.70;99.90;;;13.00;91.57;102224.91;5093593;28;20525;-73
2023/09/04 06:51:09;;;;;;;11.03;9.30;;;13.60;99.90;;;13.07;92.18;102225.19;5093350;28;20635;-73
2023/09/04 06:53:42;;;;;;;13.53;8.63;;;13.80;99.90;;;13.10;91.12;102224.94;5093214;28;20319;-67
2023/09/04 06:56:14;;;;;;;8.93;8.10;;;13.70;99.90;;;13.15;91.65;102230.75;5093706;28;20231;-72
2023/09/04 06:58:47;;;;;;;12.10;8.73;;;13.80;99.90;;;13.20;91.71;102229.31;5093643;28;20192;-72
2023/09/04 07:01:19;;;;;;;8.80;8.00;;;13.90;99.90;;;13.25;91.20;102228.91;5093633;28;20228;-72
2023/09/04 07:03:52;;;;;;;10.27;9.27;;;13.90;99.90;;;13.32;92.72;102224.63;5093451;28;20224;-72
2023/09/04 07:06:24;;;;;;;8.97;8.17;;;14.00;99.90;;;13.39;92.75;102228.44;5093506;28;20259;-73
2023/09/04 07:08:55;;;;;;;8.93;8.13;;;14.00;99.90;;;13.43;92.52;102229.88;5093138;28;20738;-73
2023/09/04 07:11:28;;;;;;;8.50;7.70;;;14.20;99.90;;;13.49;92.73;102228.47;5093112;28;20283;-73
2023/09/04 07:14:01;;;;;;;8.93;7.80;;;14.10;99.90;;;13.55;93.34;102228.75;5093344;28;20231;-73
2023/09/04 07:16:37;;;;;;;10.97;7.57;;;14.20;99.90;;;13.63;93.39;102225.34;5093431;28;20185;-73
2023/09/04 07:19:17;;;;;;;8.83;7.37;;;14.40;99.90;;;13.67;93.07;102227.56;5093399;28;20284;-73
2023/09/04 07:21:49;;;;;;;9.50;8.00;;;14.40;99.90;;;13.76;93.36;102228.56;5093037;28;20530;-73
2023/09/04 07:24:21;;;;;;;9.53;7.13;;;14.40;99.90;;;13.82;93.94;102229.81;5093257;28;20311;-73
2023/09/04 07:26:53;;;;;;;7.77;6.97;;;14.50;99.90;;;13.89;93.33;102233.63;5092957;28;20223;-73
2023/09/04 07:29:26;;;;;;;8.27;7.17;;;14.60;99.90;;;14.04;93.49;102232.19;5093608;28;20280;-73
2023/09/04 07:31:59;;;;;;;12.47;7.50;;;14.70;99.90;;;14.09;92.89;102229.88;5093254;28;20284;-73
2023/09/04 07:34:30;;;;;;;7.77;6.73;;;14.80;99.90;;;14.20;90.87;102235.09;5092852;28;20221;-73
2023/09/04 07:37:06;;;;;;;9.47;7.27;;;15.00;99.90;;;14.29;91.85;102234.19;5093216;28;20188;-73
2023/09/04 07:39:39;;;;;;;7.53;6.87;;;15.00;99.90;;;14.30;92.17;102229.66;5093187;28;20195;-73
2023/09/04 07:42:12;;;;;;;8.37;7.47;;;15.10;99.90;;;14.39;91.15;102231.50;5093134;28;20273;-72
2023/09/04 07:44:45;;;;;;;8.13;7.43;;;15.10;99.90;;;14.51;91.11;102228.47;5093046;28;20307;-72
2023/09/04 07:47:17;;;;;;;7.43;6.73;;;15.30;99.90;;;14.57;90.03;102227.88;5093038;28;20213;-72
2023/09/04 07:49:50;;;;;;;7.13;6.43;;;15.40;99.90;;;14.61;90.74;102231.97;5093060;28;20232;-72
2023/09/04 07:52:23;;;;;;;6.83;6.23;;;15.40;99.90;;;14.69;91.12;102234.72;5092913;28;20205;-73
2023/09/04 07:54:55;;;;;;;6.90;6.30;;;15.50;99.90;;;14.80;91.66;102239.06;5092646;28;20232;-72
2023/09/04 07:57:27;;;;;;;7.47;6.30;;;15.50;99.90;;;14.88;90.20;102236.47;5093039;28;20196;-72
2023/09/04 08:00:00;;;;;;;7.03;6.33;;;15.70;99.90;;;14.99;91.86;102241.66;5092942;28;20193;-72
2023/09/04 08:02:32;;;;;;;8.80;6.27;;;15.90;99.90;;;15.20;88.30;102242.19;5092965;28;20289;-72
2023/09/04 08:05:04;;;;;;;8.20;6.60;;;16.00;99.90;;;15.33;87.92;102249.91;5092498;28;20663;-72
2023/09/04 08:07:36;;;;;;;9.40;6.37;;;16.10;99.90;;;15.43;88.21;102247.97;5092918;28;20299;-73
2023/09/04 08:10:09;;;;;;;7.00;6.10;;;16.20;99.90;;;15.49;88.63;102247.38;5092936;28;20314;-74
2023/09/04 08:12:41;;;;;;;5.93;5.33;;;16.30;99.90;;;15.58;87.50;102235.63;5092829;28;20271;-74
2023/09/04 08:15:15;;;;;;;7.60;5.43;;;16.40;99.90;;;15.65;87.54;102239.41;5092807;28;20311;-74
2023/09/04 08:17:48;;;;;;;6.93;5.00;;;16.40;99.90;;;15.82;86.15;102243.09;5093102;28;20189;-74
2023/09/04 08:20:20;;;;;;;6.63;5.03;;;16.60;99.90;;;15.95;86.32;102242.66;5092800;28;20194;-74
2023/09/04 08:22:52;;;;;;;6.03;4.97;;;16.80;99.90;;;15.99;85.81;102244.06;5094505;28;20189;-74
2023/09/04 08:25:25;;;;;;;9.17;5.20;;;16.80;99.90;;;16.06;86.86;102247.81;5096499;28;20225;-74
2023/09/04 08:27:59;;;;;;;6.93;4.63;;;16.90;99.90;;;16.22;85.59;102256.00;5096301;28;20749;-74
2023/09/04 08:30:34;;;;;;;5.57;5.07;;;17.00;99.90;;;16.26;86.48;102251.13;5096158;28;20288;-75
2023/09/04 08:33:06;;;;;;;5.93;4.33;;;17.00;99.90;;;16.37;83.97;102254.38;5095579;28;20690;-75
2023/09/04 08:35:38;;;;;;;7.20;4.30;;;17.30;99.90;;;16.49;82.26;102252.25;5096140;28;20189;-75
2023/09/04 08:38:10;;;;;;;5.53;4.30;;;17.40;99.90;;;16.75;78.80;102241.41;5095691;28;20185;-73
2023/09/04 08:40:45;;;;;;;6.10;4.10;;;17.50;99.90;;;16.75;80.95;102247.66;5095763;28;20604;-75
2023/09/04 08:43:21;;;;;;;25.83;5.47;;;17.60;99.90;;;16.95;78.46;102235.53;5095266;28;20711;-75
2023/09/04 08:45:55;;;;;;;6.07;4.27;;;17.80;99.90;;;17.01;79.06;102240.31;5095913;28;20220;-75
2023/09/04 08:48:38;;;;;;;6.00;4.23;;;17.80;99.90;;;17.10;77.61;102235.75;5096501;28;20192;-75
2023/09/04 08:51:10;;;;;;;5.13;3.50;;;17.90;99.90;;;17.12;78.92;102231.84;5096093;28;20240;-76
2023/09/04 08:53:44;;;;;;;4.23;3.40;;;17.90;99.90;;;17.20;78.12;102220.19;5095837;28;20332;-76
2023/09/04 08:56:16;;;;;;;8.27;4.20;;;18.00;99.90;;;17.38;76.66;102226.31;5095566;28;20646;-75
2023/09/04 08:58:50;;;;;;;7.33;3.20;;;18.10;99.90;;;17.69;74.01;102223.78;5095759;28;20287;-75
2023/09/04 09:01:28;;;;;;;9.13;3.80;;;18.50;99.90;;;17.67;74.06;102223.94;5095122;28;20189;-75
2023/09/04 09:04:01;;;;;;;4.23;3.40;;;18.50;99.90;;;17.68;75.71;102214.81;5094524;28;20225;-76
2023/09/04 09:06:36;;;;;;;8.33;3.97;;;18.50;99.90;;;17.77;75.83;102220.22;5094815;28;20209;-76
2023/09/04 09:09:11;;;;;;;5.33;3.40;;;18.50;99.90;;;17.98;72.24;102215.94;5095306;28;20275;-75
2023/09/04 09:11:45;;;;;;;5.10;3.30;;;18.80;99.90;;;17.99;75.05;102219.50;5095576;28;20228;-75
2023/09/04 09:14:18;;;;;;;3.10;2.77;;;18.80;99.90;;;18.06;72.88;102223.19;5095084;28;20710;-75
2023/09/04 09:17:04;;;;;;;3.13;2.63;;;18.90;99.90;;;18.24;68.86;102221.97;5095407;28;20193;-75
2023/09/04 09:19:39;;;;;;;3.50;2.53;;;19.00;99.90;;;18.33;69.69;102217.34;5095462;28;20185;-75
2023/09/04 09:22:19;;;;;;;5.30;2.93;;;19.10;99.90;;;18.42;69.90;102216.31;5095064;28;20709;-75
2023/09/04 09:24:59;;;;;;;3.50;2.80;;;19.20;99.90;;;18.56;68.01;102210.16;5095255;28;20224;-75
2023/09/04 09:27:33;;;;;;;5.67;3.90;;;19.30;99.90;;;18.62;68.74;102209.47;5095238;28;20248;-75
2023/09/04 09:30:06;;;;;;;4.72;2.90;;;19.40;99.90;;;18.77;68.24;102206.03;5094658;28;20433;-75
2023/09/04 09:32:39;;;;;;;5.20;3.33;;;19.50;99.90;;;18.99;67.35;102199.75;5093691;28;20464;-75
2023/09/04 09:35:16;;;;;;;4.43;3.30;;;19.90;99.90;;;19.17;65.38;102198.44;5093588;28;20428;-75
2023/09/04 09:37:48;;;;;;;5.72;3.97;;;19.90;99.00;;;19.35;66.32;102189.97;5093953;28;20500;-75
2023/09/04 09:40:24;;;;;;;5.03;3.40;;;20.10;99.80;;;19.57;64.95;102186.41;5093456;28;20421;-75
2023/09/04 09:42:59;;;;;;;5.80;4.03;;;20.30;98.80;;;19.55;65.93;102177.63;5093457;28;20460;-75
2023/09/04 09:45:35;;;;;;;7.53;3.50;;;20.30;99.00;;;19.73;64.36;102178.09;5093592;28;20444;-75
2023/09/04 09:48:14;;;;;;;5.30;3.93;;;20.60;98.30;;;19.72;66.13;102173.72;5094775;28;20896;-75
2023/09/04 09:50:47;;;;;;;6.23;4.10;;;20.40;99.30;;;19.89;65.48;102178.97;5093713;28;20428;-75
2023/09/04 09:53:18;;;;;;;6.82;4.97;;;20.60;98.90;;;20.04;64.80;102185.22;5093663;28;20586;-75
2023/09/04 09:55:53;;;;;;;5.57;4.27;;;20.70;98.30;;;20.14;61.75;102180.34;5094394;28;20697;-75
2023/09/04 09:58:25;;;;;;;5.97;4.30;;;20.80;97.20;;;20.21;63.99;102178.56;5094032;28;20425;-74
2023/09/04 10:00:58;;;;;;;7.13;4.50;;;20.80;97.70;;;20.23;63.37;102181.97;5093843;28;20439;-74
2023/09/04 10:03:33;;;;;;;5.95;4.22;;;20.90;97.50;;;20.33;63.97;102174.41;5093309;28;20421;-75
2023/09/04 10:06:09;;;;;;;5.35;3.80;;;21.00;97.70;;;20.43;61.26;102180.38;5093895;28;20424;-75
2023/09/04 10:08:45;;;;;;;6.40;4.35;;;21.10;96.50;;;20.49;62.14;102173.31;5093605;28;20480;-74
2023/09/04 10:11:18;;;;;;;4.15;3.20;;;21.10;99.90;;;20.65;59.20;102173.13;5093266;28;20515;-75
2023/09/04 10:14:12;;;;;;;4.07;3.50;;;21.30;95.40;;;20.77;59.08;102176.16;5093611;28;20443;-74
2023/09/04 10:16:51;;;;;;;5.68;3.85;;;21.40;95.00;;;20.92;60.11;102168.81;5093369;28;20424;-74
2023/09/04 10:19:34;;;;;;;7.22;4.00;;;21.60;95.80;;;20.93;60.96;102170.47;5092744;28;20481;-74
2023/09/04 10:22:21;;;;;;;6.20;4.70;;;21.60;96.40;;;20.98;61.24;102166.16;5093442;28;20891;-74
2023/09/04 10:25:03;;;;;;;6.70;4.00;;;21.60;96.10;;;21.10;61.04;102171.94;5092914;28;20448;-75
2023/09/04 10:27:51;;;;;;;6.43;4.20;;;21.70;96.50;;;21.12;60.47;102165.28;5092887;28;20444;-75
2023/09/04 10:30:28;;;;;;;3.80;3.40;;;21.70;95.80;;;21.26;60.64;102168.13;5092950;28;20500;-75
2023/09/04 10:33:02;;;;;;;4.32;3.33;;;21.80;95.80;;;21.33;60.98;102167.16;5092614;28;20791;-75
2023/09/04 10:35:37;;;;;;;4.27;3.87;;;21.90;96.00;;;21.43;59.07;102162.19;5093942;28;20586;-75
2023/09/04 10:38:13;;;;;;;3.85;2.88;;;22.00;94.80;;;21.62;55.04;102161.50;5092805;28;20858;-75